Time;durP1;ratioP1;P1;durP2;ratioP2;P2;SDS_P1;SDS_P2;PMS_P1;PMS_P2;Temp;Humidity;BMP_temperature;BMP_pressure;BME280_temperature;BME280_humidity;BME280_pressure;Samples;Min_cycle;Max_cycle;Signal;HPM_P1;HPM_P2
2022/08/08 00:01:33;;;;;;;11.65;7.32;;;13.60;99.90;;;;;;4981481;28;20385;-69
2022/08/08 00:04:14;;;;;;;14.73;3.28;;;13.60;99.90;;;;;;4977277;28;20138;-69
2022/08/08 00:07:20;;;;;;;6.78;5.60;;;13.50;99.90;;;;;;5026276;28;20104;-69
2022/08/08 00:09:53;;;;;;;7.95;5.35;;;13.30;99.90;;;;;;4936526;28;20098;-69
2022/08/08 00:12:26;;;;;;;9.02;6.05;;;13.20;99.90;;;;;;5010762;28;20572;-69
2022/08/08 00:15:02;;;;;;;9.10;5.70;;;13.30;99.90;;;;;;5008371;28;20501;-71
2022/08/08 00:17:58;;;;;;;10.43;6.50;;;13.30;99.90;;;;;;5006608;28;20174;-70
2022/08/08 00:20:28;;;;;;;7.78;5.88;;;13.30;99.90;;;;;;5026003;28;20081;-71
2022/08/08 00:22:59;;;;;;;8.82;6.00;;;13.20;99.90;;;;;;4993759;28;20050;-72
2022/08/08 00:25:39;;;;;;;10.27;6.50;;;13.20;99.90;;;;;;5008249;28;20480;-69
2022/08/08 00:28:08;;;;;;;8.70;6.25;;;13.20;99.90;;;;;;4990733;28;20134;-72
2022/08/08 00:30:38;;;;;;;8.63;6.38;;;13.20;99.90;;;;;;4961694;28;20039;-69
2022/08/08 00:33:11;;;;;;;8.52;4.85;;;13.10;99.90;;;;;;4983279;28;20125;-69
2022/08/08 00:35:46;;;;;;;8.15;5.28;;;13.00;99.90;;;;;;4987505;28;20034;-69
2022/08/08 00:38:43;;;;;;;6.82;5.07;;;13.00;99.90;;;;;;5015896;28;20065;-70
2022/08/08 00:41:43;;;;;;;7.30;5.57;;;12.90;99.90;;;;;;4975277;28;20047;-69
2022/08/08 00:44:56;;;;;;;8.52;6.43;;;13.00;99.90;;;;;;4993702;28;20094;-70
2022/08/08 00:47:40;;;;;;;8.88;6.13;;;13.00;99.90;;;;;;4971729;28;20046;-69
2022/08/08 00:50:18;;;;;;;10.15;6.63;;;13.00;99.90;;;;;;4995724;28;20041;-69
2022/08/08 00:53:12;;;;;;;12.35;6.53;;;13.00;99.90;;;;;;4996207;28;20050;-69
2022/08/08 00:56:06;;;;;;;9.43;6.80;;;13.00;99.90;;;;;;5009435;28;20035;-70
2022/08/08 00:59:17;;;;;;;11.43;7.13;;;13.00;99.90;;;;;;4973779;28;20400;-69
2022/08/08 01:02:15;;;;;;;8.85;6.57;;;13.00;99.90;;;;;;4973927;28;20455;-69
2022/08/08 01:05:21;;;;;;;7.90;6.22;;;13.00;99.90;;;;;;4974502;28;20456;-69
2022/08/08 01:08:22;;;;;;;8.80;6.68;;;13.00;99.90;;;;;;4985908;28;20482;-69
2022/08/08 01:11:00;;;;;;;10.20;6.37;;;12.90;99.90;;;;;;4991188;28;20045;-69
2022/08/08 01:13:55;;;;;;;7.10;5.95;;;12.80;99.90;;;;;;5018817;28;20069;-71
2022/08/08 01:16:27;;;;;;;5.57;4.50;;;12.80;99.90;;;;;;4980834;28;20081;-69
2022/08/08 01:19:25;;;;;;;7.60;5.40;;;12.80;99.90;;;;;;5005136;28;20535;-74
2022/08/08 01:22:16;;;;;;;6.47;4.63;;;12.80;99.90;;;;;;5009045;28;20049;-69
2022/08/08 01:25:10;;;;;;;5.20;4.70;;;12.70;99.90;;;;;;4971559;28;20350;-69
2022/08/08 01:28:03;;;;;;;4.15;3.75;;;12.70;99.90;;;;;;5006874;28;20063;-69
2022/08/08 01:31:08;;;;;;;5.03;4.40;;;12.60;99.90;;;;;;5005898;28;20061;-69
2022/08/08 01:33:34;;;;;;;5.60;4.43;;;12.60;99.90;;;;;;4985521;28;20133;-69
2022/08/08 01:36:18;;;;;;;4.10;3.70;;;12.50;99.90;;;;;;4999108;28;20101;-71
2022/08/08 01:38:47;;;;;;;5.82;5.00;;;12.50;99.90;;;;;;5024938;28;20551;-69
2022/08/08 01:41:44;;;;;;;9.45;6.60;;;12.40;99.90;;;;;;4984505;28;20468;-69
2022/08/08 01:44:37;;;;;;;9.93;6.10;;;12.40;99.90;;;;;;4987108;28;20050;-69
2022/08/08 01:47:03;;;;;;;8.73;4.53;;;12.50;99.90;;;;;;5010422;28;20054;-69
2022/08/08 01:50:14;;;;;;;6.82;3.17;;;12.50;99.90;;;;;;5008004;28;20058;-69
2022/08/08 01:52:56;;;;;;;5.25;4.18;;;12.40;99.90;;;;;;4975045;28;20038;-69
2022/08/08 01:55:36;;;;;;;6.97;4.68;;;12.30;99.90;;;;;;4987689;28;20050;-70
2022/08/08 01:58:05;;;;;;;11.75;6.88;;;12.30;99.90;;;;;;4990634;28;20050;-69
2022/08/08 02:00:53;;;;;;;10.25;7.80;;;12.30;99.90;;;;;;4992411;28;20049;-69
2022/08/08 02:03:31;;;;;;;9.45;6.78;;;12.30;99.90;;;;;;5024681;28;20049;-69
2022/08/08 02:06:12;;;;;;;8.98;5.35;;;12.30;99.90;;;;;;4980317;28;20484;-70
2022/08/08 02:09:05;;;;;;;5.60;4.63;;;12.30;99.90;;;;;;4989120;28;20532;-69
2022/08/08 02:11:43;;;;;;;6.10;4.90;;;12.20;99.90;;;;;;5017621;28;20422;-69
2022/08/08 02:14:31;;;;;;;10.75;7.57;;;12.20;99.90;;;;;;4991667;28;20117;-69
2022/08/08 02:17:23;;;;;;;11.90;8.35;;;12.20;99.90;;;;;;5011287;28;20072;-69
2022/08/08 02:20:07;;;;;;;10.13;7.03;;;12.20;99.90;;;;;;4982434;28;20058;-68
2022/08/08 02:23:01;;;;;;;8.13;6.38;;;12.10;99.90;;;;;;4975289;28;20057;-69
2022/08/08 02:25:37;;;;;;;8.90;6.38;;;12.20;99.90;;;;;;4991174;28;20060;-69
2022/08/08 02:28:03;;;;;;;7.50;6.65;;;12.10;99.90;;;;;;4995350;28;20068;-69
2022/08/08 02:30:47;;;;;;;8.38;6.82;;;12.20;99.90;;;;;;4969571;28;20042;-69
2022/08/08 02:33:39;;;;;;;6.35;5.60;;;12.10;99.90;;;;;;4986059;28;20085;-69
2022/08/08 02:36:28;;;;;;;6.10;5.50;;;12.10;99.90;;;;;;4984230;28;20100;-69
2022/08/08 02:39:03;;;;;;;7.38;5.28;;;12.10;99.90;;;;;;5013661;28;20050;-71
2022/08/08 02:41:46;;;;;;;22.35;6.82;;;12.10;99.90;;;;;;5017815;28;20041;-69
2022/08/08 02:44:44;;;;;;;10.70;7.05;;;12.10;99.90;;;;;;4984220;28;20046;-69
2022/08/08 02:47:18;;;;;;;15.15;10.80;;;12.10;99.90;;;;;;4991284;28;20089;-69
2022/08/08 02:50:09;;;;;;;13.70;9.27;;;12.00;99.90;;;;;;4991960;28;20042;-69
2022/08/08 02:53:02;;;;;;;13.40;11.00;;;12.10;99.90;;;;;;4991198;28;20053;-69
2022/08/08 02:55:46;;;;;;;10.02;8.30;;;12.10;99.90;;;;;;4974865;28;20336;-69
2022/08/08 02:58:34;;;;;;;13.43;9.40;;;12.10;99.90;;;;;;4991236;28;20088;-69
2022/08/08 03:01:28;;;;;;;16.45;10.13;;;12.10;99.90;;;;;;4990584;28;20046;-69
2022/08/08 03:04:13;;;;;;;11.73;9.35;;;12.10;99.90;;;;;;4999523;28;20377;-70
2022/08/08 03:07:22;;;;;;;9.45;8.45;;;12.10;99.90;;;;;;4991581;28;20105;-69
2022/08/08 03:10:14;;;;;;;10.85;8.88;;;12.10;99.90;;;;;;4991525;28;20054;-71
2022/08/08 03:13:26;;;;;;;58.47;10.20;;;12.10;99.90;;;;;;4981741;28;20050;-69
2022/08/08 03:16:22;;;;;;;9.82;7.65;;;12.10;99.90;;;;;;4994344;28;20428;-69
2022/08/08 03:19:05;;;;;;;9.32;6.53;;;12.00;99.90;;;;;;4992756;28;20053;-69
2022/08/08 03:21:30;;;;;;;13.70;9.48;;;12.00;99.90;;;;;;4999772;28;20057;-69
2022/08/08 03:23:57;;;;;;;14.95;9.93;;;12.00;99.90;;;;;;5027375;28;20046;-69
2022/08/08 03:26:31;;;;;;;14.10;11.15;;;12.10;99.90;;;;;;4993637;28;20046;-70
2022/08/08 03:29:07;;;;;;;17.65;12.27;;;12.20;99.90;;;;;;5025117;28;20042;-70
2022/08/08 03:34:17;;;;;;;15.48;12.30;;;12.30;99.90;;;;;;4994641;28;20046;-69
2022/08/08 03:36:44;;;;;;;16.90;12.93;;;12.40;99.90;;;;;;4977080;28;20050;-69
2022/08/08 03:39:12;;;;;;;15.93;12.48;;;12.40;99.90;;;;;;4994851;28;20041;-69
2022/08/08 03:41:42;;;;;;;17.10;13.05;;;12.50;99.90;;;;;;5000397;28;20528;-69
2022/08/08 03:44:08;;;;;;;16.33;12.00;;;12.50;99.90;;;;;;5026794;28;20050;-69
2022/08/08 03:46:48;;;;;;;17.02;13.20;;;12.60;99.90;;;;;;4993242;28;20511;-70
2022/08/08 03:49:25;;;;;;;14.75;11.90;;;12.70;99.90;;;;;;4993368;28;20049;-69
2022/08/08 03:51:56;;;;;;;16.38;11.13;;;12.70;99.90;;;;;;4996625;28;20559;-69
2022/08/08 03:54:24;;;;;;;14.13;11.37;;;12.70;99.90;;;;;;4977532;28;20046;-70
2022/08/08 03:56:50;;;;;;;15.77;12.00;;;12.80;99.90;;;;;;4992803;28;20050;-69
2022/08/08 03:59:17;;;;;;;15.20;12.25;;;12.80;99.90;;;;;;5026104;28;20112;-70
2022/08/08 04:01:43;;;;;;;15.50;12.50;;;12.90;99.90;;;;;;4993664;28;20492;-69
2022/08/08 04:04:09;;;;;;;21.88;13.20;;;12.90;99.90;;;;;;4985057;28;20037;-70
2022/08/08 04:06:37;;;;;;;14.95;11.85;;;13.00;99.90;;;;;;4985001;28;20085;-69
2022/08/08 04:09:06;;;;;;;17.80;12.63;;;13.00;99.90;;;;;;4989872;28;20054;-69
2022/08/08 04:11:33;;;;;;;16.90;12.48;;;13.10;99.90;;;;;;5003842;28;20042;-70
2022/08/08 04:13:59;;;;;;;17.15;12.45;;;13.20;99.90;;;;;;4974242;28;20050;-69
2022/08/08 04:16:25;;;;;;;16.25;12.27;;;13.20;99.90;;;;;;4997395;28;20049;-71
2022/08/08 04:18:51;;;;;;;14.55;12.25;;;13.20;99.90;;;;;;4992941;28;20041;-70
2022/08/08 04:21:17;;;;;;;17.42;12.73;;;13.30;99.90;;;;;;5026646;28;20042;-70
2022/08/08 04:23:43;;;;;;;17.63;11.48;;;13.30;99.90;;;;;;4993789;28;20046;-69
2022/08/08 04:26:10;;;;;;;16.38;12.43;;;13.30;99.90;;;;;;4973457;28;20046;-70
2022/08/08 04:28:36;;;;;;;17.63;13.05;;;13.40;99.90;;;;;;4975503;28;20492;-71
2022/08/08 04:31:02;;;;;;;18.17;12.90;;;13.50;99.90;;;;;;4993536;28;20050;-70
2022/08/08 04:33:28;;;;;;;16.27;11.65;;;13.50;99.90;;;;;;4993260;28;20042;-73
2022/08/08 04:35:54;;;;;;;17.02;12.25;;;13.50;99.90;;;;;;5009391;28;20038;-73
2022/08/08 04:38:20;;;;;;;17.20;12.27;;;13.50;99.90;;;;;;5022629;28;20060;-69
2022/08/08 04:40:46;;;;;;;16.00;12.70;;;13.50;99.90;;;;;;4990063;28;20077;-72
2022/08/08 04:43:12;;;;;;;17.02;11.82;;;13.60;99.90;;;;;;5000127;28;20143;-69
2022/08/08 04:45:37;;;;;;;15.30;11.02;;;13.90;99.90;;;;;;4978041;28;20069;-69
2022/08/08 04:48:04;;;;;;;14.07;11.00;;;13.70;99.90;;;;;;4976735;28;20050;-69
2022/08/08 04:50:30;;;;;;;16.63;11.90;;;13.80;99.90;;;;;;4985122;28;20488;-70
2022/08/08 04:52:56;;;;;;;17.27;12.23;;;13.80;99.90;;;;;;4994899;28;20510;-71
2022/08/08 04:55:22;;;;;;;17.50;12.00;;;13.90;99.90;;;;;;4992749;28;20042;-70
2022/08/08 04:57:48;;;;;;;17.15;11.85;;;14.00;99.90;;;;;;5008355;28;20133;-70
2022/08/08 05:00:14;;;;;;;17.88;11.65;;;14.00;99.90;;;;;;5021511;28;20051;-70
2022/08/08 05:02:40;;;;;;;16.23;10.80;;;14.10;99.90;;;;;;4994786;28;20038;-70
2022/08/08 05:05:06;;;;;;;15.75;10.52;;;14.20;99.90;;;;;;4989656;28;20486;-70
2022/08/08 05:07:33;;;;;;;14.98;10.80;;;14.30;99.90;;;;;;5006795;28;20522;-69
2022/08/08 05:09:59;;;;;;;13.95;8.98;;;14.40;99.90;;;;;;5014029;28;20042;-70
2022/08/08 05:12:25;;;;;;;13.60;9.02;;;14.40;99.90;;;;;;4990490;28;20041;-71
2022/08/08 05:14:51;;;;;;;15.05;8.98;;;14.50;99.90;;;;;;5000851;28;20034;-71
2022/08/08 05:17:17;;;;;;;11.80;9.02;;;14.60;99.90;;;;;;4994662;28;20121;-70
2022/08/08 05:19:43;;;;;;;11.90;9.02;;;14.70;99.90;;;;;;4989390;28;20125;-70
2022/08/08 05:22:09;;;;;;;11.75;7.82;;;14.70;99.90;;;;;;4992538;28;20053;-69
2022/08/08 05:24:36;;;;;;;13.30;8.15;;;14.80;99.90;;;;;;4975849;28;20060;-70
2022/08/08 05:27:02;;;;;;;13.63;8.60;;;14.90;99.90;;;;;;4991343;28;20057;-70
2022/08/08 05:29:28;;;;;;;12.38;7.90;;;14.90;99.90;;;;;;4992980;28;20066;-70
2022/08/08 05:31:54;;;;;;;11.55;7.65;;;14.90;99.90;;;;;;5008224;28;20144;-70
2022/08/08 05:34:40;;;;;;;12.38;8.43;;;14.90;99.90;;;;;;4989668;28;20047;-70
2022/08/08 05:37:07;;;;;;;13.60;7.93;;;15.00;99.90;;;;;;5011265;28;20226;-70
2022/08/08 05:39:33;;;;;;;13.05;8.38;;;15.10;99.90;;;;;;4988719;28;20133;-70
2022/08/08 05:42:00;;;;;;;12.27;7.75;;;15.10;99.90;;;;;;4976217;28;21278;-71
2022/08/08 05:44:32;;;;;;;11.88;8.18;;;15.20;99.90;;;;;;5001845;28;20053;-71
2022/08/08 05:46:58;;;;;;;10.13;8.13;;;15.30;99.90;;;;;;4975630;28;20381;-70
2022/08/08 05:49:24;;;;;;;9.15;7.13;;;15.40;99.90;;;;;;4984929;28;20489;-71
2022/08/08 05:51:50;;;;;;;14.52;7.75;;;15.50;99.90;;;;;;4976045;28;20046;-69
2022/08/08 05:54:18;;;;;;;14.85;7.72;;;15.50;99.90;;;;;;4992337;28;20038;-70
2022/08/08 05:56:45;;;;;;;12.15;7.80;;;15.60;99.90;;;;;;4991980;28;20051;-69
2022/08/08 05:59:23;;;;;;;13.20;7.40;;;15.60;99.90;;;;;;4990184;28;20045;-71
2022/08/08 06:01:53;;;;;;;10.70;7.28;;;15.70;99.90;;;;;;4988715;28;20038;-72
2022/08/08 06:04:27;;;;;;;14.23;7.40;;;15.80;99.90;;;;;;4991555;28;20069;-70
2022/08/08 06:06:55;;;;;;;10.05;7.53;;;15.90;99.90;;;;;;5015278;28;20112;-74
2022/08/08 06:09:27;;;;;;;13.57;7.00;;;16.00;99.90;;;;;;5002648;28;20053;-70
2022/08/08 06:11:58;;;;;;;10.68;7.20;;;16.00;99.90;;;;;;4993106;28;20042;-73
2022/08/08 06:14:26;;;;;;;10.48;7.30;;;16.10;99.90;;;;;;5017599;28;20038;-69
2022/08/08 06:16:56;;;;;;;17.88;7.35;;;16.30;99.90;;;;;;4990589;28;20044;-70
2022/08/08 06:19:23;;;;;;;13.43;7.90;;;16.30;99.90;;;;;;4992168;28;20042;-70
2022/08/08 06:21:50;;;;;;;15.90;7.60;;;16.30;99.90;;;;;;4991171;28;20523;-70
2022/08/08 06:24:16;;;;;;;12.55;6.95;;;16.40;99.90;;;;;;5024516;28;20057;-70
2022/08/08 06:26:50;;;;;;;12.43;7.38;;;16.50;99.90;;;;;;5006855;28;20117;-70
2022/08/08 06:29:24;;;;;;;10.88;7.10;;;16.60;99.90;;;;;;4991668;28;20488;-68
2022/08/08 06:31:58;;;;;;;12.50;6.55;;;16.70;99.90;;;;;;4991327;28;20129;-73
2022/08/08 06:34:33;;;;;;;12.55;6.82;;;16.70;99.90;;;;;;4990328;28;20046;-72
2022/08/08 06:37:02;;;;;;;9.82;6.40;;;16.80;99.90;;;;;;5024083;28;20133;-69
2022/08/08 06:39:29;;;;;;;11.88;6.82;;;16.90;99.90;;;;;;4996000;28;20050;-69
2022/08/08 06:41:57;;;;;;;9.77;6.47;;;16.90;99.90;;;;;;5000144;28;20393;-69
2022/08/08 06:44:25;;;;;;;11.82;6.40;;;17.00;99.90;;;;;;4989668;28;20053;-73
2022/08/08 06:46:55;;;;;;;13.98;6.72;;;17.10;99.90;;;;;;4986241;28;20085;-69
2022/08/08 06:49:21;;;;;;;11.75;6.82;;;17.20;99.90;;;;;;4980698;28;20058;-69
2022/08/08 06:51:48;;;;;;;12.25;5.90;;;17.30;99.90;;;;;;4989892;28;20513;-69
2022/08/08 06:54:14;;;;;;;9.98;6.25;;;17.30;99.90;;;;;;5009296;28;20504;-70
2022/08/08 06:56:44;;;;;;;10.38;6.55;;;17.50;99.90;;;;;;4965797;28;20097;-70
2022/08/08 06:59:10;;;;;;;11.30;6.53;;;17.60;99.90;;;;;;5007129;28;20054;-69
2022/08/08 07:01:43;;;;;;;8.48;6.07;;;17.80;99.90;;;;;;4991253;28;20058;-69
2022/08/08 07:04:16;;;;;;;10.07;5.43;;;18.00;99.90;;;;;;4978746;28;20050;-70
2022/08/08 07:06:49;;;;;;;10.57;5.13;;;18.20;99.90;;;;;;4972761;28;20042;-69
2022/08/08 07:09:18;;;;;;;10.13;5.00;;;18.20;99.90;;;;;;5007030;28;20053;-69
2022/08/08 07:11:52;;;;;;;8.60;4.70;;;18.30;99.90;;;;;;4999171;28;20070;-69
2022/08/08 07:14:34;;;;;;;10.82;4.60;;;18.50;99.90;;;;;;5003753;28;20043;-72
2022/08/08 07:17:13;;;;;;;10.80;4.38;;;18.60;99.90;;;;;;4989742;28;20122;-71
2022/08/08 07:19:46;;;;;;;6.38;4.43;;;18.70;99.90;;;;;;4993820;28;20042;-70
2022/08/08 07:22:21;;;;;;;10.55;4.50;;;18.70;99.90;;;;;;5005750;28;20038;-69
2022/08/08 07:25:02;;;;;;;6.90;4.13;;;18.70;99.90;;;;;;4987715;28;20043;-70
2022/08/08 07:27:34;;;;;;;;;;;19.00;99.90;;;;;;5003724;28;20358;-69
2022/08/08 07:30:01;;;;;;;8.50;3.60;;;19.10;99.90;;;;;;5020333;28;19924;-70
2022/08/08 07:32:28;;;;;;;5.88;3.20;;;19.30;99.90;;;;;;5000488;28;20039;-69
2022/08/08 07:34:56;;;;;;;6.65;2.90;;;19.60;99.90;;;;;;5003794;28;20050;-70
2022/08/08 07:37:23;;;;;;;9.60;2.95;;;19.70;99.90;;;;;;4989538;28;20057;-69
2022/08/08 07:39:51;;;;;;;7.55;3.30;;;19.90;99.90;;;;;;4981368;28;20053;-69
2022/08/08 07:42:19;;;;;;;6.60;2.80;;;20.00;99.90;;;;;;4973951;28;20038;-70
2022/08/08 07:44:46;;;;;;;7.45;2.65;;;20.10;99.90;;;;;;4988720;28;20365;-69
2022/08/08 07:47:12;;;;;;;5.88;2.70;;;20.30;99.90;;;;;;5022330;28;20485;-69
2022/08/08 07:49:39;;;;;;;5.70;2.58;;;20.30;99.90;;;;;;5026138;28;20069;-70
2022/08/08 07:52:11;;;;;;;7.80;2.70;;;20.30;99.90;;;;;;4991833;28;20052;-71
2022/08/08 07:54:45;;;;;;;6.88;2.78;;;20.40;99.90;;;;;;5025235;28;20386;-69
2022/08/08 07:57:28;;;;;;;7.95;3.15;;;20.50;99.90;;;;;;5009986;28;20396;-70
2022/08/08 08:00:09;;;;;;;6.15;2.97;;;20.80;99.90;;;;;;4989814;28;20045;-71
2022/08/08 08:03:11;;;;;;;4.30;2.15;;;21.00;99.90;;;;;;4981947;28;20061;-69
2022/08/08 08:05:41;;;;;;;;;;;21.00;99.90;;;;;;4977274;28;20469;-70
2022/08/08 08:08:19;;;;;;;4.80;2.07;;;21.00;99.90;;;;;;4984925;28;19921;-70
2022/08/08 08:10:50;;;;;;;3.97;1.88;;;21.40;99.90;;;;;;4994300;28;20527;-70
2022/08/08 08:13:54;;;;;;;5.95;2.30;;;21.90;99.90;;;;;;4988097;28;20134;-69
2022/08/08 08:16:29;;;;;;;5.25;1.83;;;22.10;99.90;;;;;;4977348;28;20489;-69
2022/08/08 08:19:05;;;;;;;2.70;1.50;;;22.10;99.90;;;;;;4996436;28;20047;-70
2022/08/08 08:21:47;;;;;;;3.28;1.40;;;21.90;99.90;;;;;;5007422;28;20043;-69
2022/08/08 08:24:14;;;;;;;3.15;1.70;;;21.80;99.90;;;;;;4983207;28;20591;-68
2022/08/08 08:26:41;;;;;;;4.97;1.92;;;21.80;99.90;;;;;;4992619;28;20046;-68
2022/08/08 08:29:08;;;;;;;7.47;1.90;;;21.70;99.90;;;;;;4995609;28;20050;-68
2022/08/08 08:31:34;;;;;;;4.47;2.03;;;21.60;99.90;;;;;;5004881;28;20064;-68
2022/08/08 08:34:01;;;;;;;7.30;2.35;;;21.60;99.90;;;;;;4993688;28;20048;-68
2022/08/08 08:36:27;;;;;;;4.75;2.13;;;21.60;99.90;;;;;;5000052;28;20101;-70
2022/08/08 08:38:53;;;;;;;6.15;2.38;;;21.60;99.90;;;;;;5001249;28;20058;-70
2022/08/08 08:41:20;;;;;;;7.13;2.15;;;21.70;99.90;;;;;;4982968;28;20042;-68
2022/08/08 08:43:48;;;;;;;4.45;1.73;;;21.70;99.90;;;;;;5009966;28;20060;-68
2022/08/08 08:46:15;;;;;;;3.22;2.05;;;21.70;99.90;;;;;;4992306;28;20389;-68
2022/08/08 08:48:42;;;;;;;4.10;2.00;;;21.80;99.90;;;;;;5000562;28;20039;-69
2022/08/08 08:51:13;;;;;;;5.15;1.80;;;21.70;99.90;;;;;;5015403;28;20050;-69
2022/08/08 08:53:53;;;;;;;4.97;2.00;;;21.70;99.90;;;;;;5012612;28;20555;-69
2022/08/08 08:56:20;;;;;;;3.93;2.00;;;21.70;99.90;;;;;;4992193;28;20046;-69
2022/08/08 08:58:50;;;;;;;19.05;2.45;;;21.70;99.90;;;;;;4993380;28;20298;-68
2022/08/08 09:01:18;;;;;;;4.05;1.90;;;21.80;99.90;;;;;;4997076;28;20043;-68
2022/08/08 09:03:49;;;;;;;4.85;1.83;;;21.80;99.90;;;;;;4996424;28;20117;-69
2022/08/08 09:06:29;;;;;;;6.00;2.00;;;21.80;99.90;;;;;;5005532;28;20082;-69
2022/08/08 09:09:09;;;;;;;4.97;1.97;;;21.70;99.90;;;;;;4988492;28;20086;-69
2022/08/08 09:11:37;;;;;;;6.30;2.17;;;21.70;99.90;;;;;;4995562;28;20041;-69
2022/08/08 09:14:05;;;;;;;3.50;1.55;;;21.70;99.90;;;;;;4978516;28;20046;-69
2022/08/08 09:16:32;;;;;;;3.78;1.48;;;21.60;99.90;;;;;;4992579;28;20047;-69
2022/08/08 09:18:58;;;;;;;3.33;1.60;;;21.70;99.90;;;;;;4992658;28;20060;-69
2022/08/08 09:21:25;;;;;;;4.55;1.50;;;21.80;99.90;;;;;;4995202;28;20055;-73
2022/08/08 09:23:53;;;;;;;2.35;1.58;;;21.90;99.90;;;;;;4992658;28;20396;-69
2022/08/08 09:26:36;;;;;;;2.97;1.73;;;22.00;99.90;;;;;;5008032;28;20097;-70
2022/08/08 09:29:05;;;;;;;4.35;1.85;;;22.10;99.90;;;;;;4994256;28;20051;-69
2022/08/08 09:31:59;;;;;;;3.65;1.70;;;22.20;99.90;;;;;;4976147;28;20100;-68
2022/08/08 09:34:29;;;;;;;2.70;1.73;;;22.20;99.90;;;;;;5025260;28;20042;-69
2022/08/08 09:37:04;;;;;;;6.53;1.67;;;22.20;99.90;;;;;;4991076;28;20049;-70
2022/08/08 09:39:52;;;;;;;2.60;1.40;;;22.20;99.90;;;;;;4973885;28;20039;-68
2022/08/08 09:42:22;;;;;;;3.80;1.40;;;22.20;99.90;;;;;;4997936;28;20096;-68
2022/08/08 09:45:05;;;;;;;6.75;2.03;;;22.10;99.90;;;;;;5008697;28;20045;-68
2022/08/08 09:47:33;;;;;;;10.10;2.83;;;22.10;99.90;;;;;;5004379;28;20046;-69
2022/08/08 09:50:01;;;;;;;6.97;2.38;;;22.00;99.90;;;;;;5009767;28;20055;-70
2022/08/08 09:52:32;;;;;;;2.95;1.50;;;21.90;99.90;;;;;;4991384;28;20046;-70
2022/08/08 09:54:59;;;;;;;4.75;1.77;;;21.90;99.90;;;;;;5017895;28;20043;-70
2022/08/08 09:57:37;;;;;;;3.38;1.58;;;22.10;99.90;;;;;;4988264;28;20050;-69
2022/08/08 10:00:09;;;;;;;2.75;1.30;;;22.60;99.90;;;;;;4995088;28;20060;-68
2022/08/08 10:02:41;;;;;;;5.15;1.40;;;23.10;99.90;;;;;;4997521;28;20077;-69
2022/08/08 10:05:28;;;;;;;2.25;1.40;;;23.70;99.90;;;;;;5003954;28;20043;-68
2022/08/08 10:07:56;;;;;;;3.10;1.15;;;24.00;99.90;;;;;;5015556;28;20052;-72
2022/08/08 10:10:28;;;;;;;1.80;1.10;;;24.30;99.90;;;;;;4991416;28;20034;-68
2022/08/08 10:12:55;;;;;;;3.70;1.20;;;24.40;99.90;;;;;;5008950;28;20081;-71
2022/08/08 10:15:27;;;;;;;7.43;1.50;;;24.50;99.90;;;;;;4990267;28;20054;-69
2022/08/08 10:17:55;;;;;;;4.15;1.30;;;24.50;99.90;;;;;;5010682;28;20375;-70
2022/08/08 10:20:22;;;;;;;3.60;1.25;;;24.30;99.90;;;;;;4991181;28;20046;-69
2022/08/08 10:23:09;;;;;;;2.47;1.27;;;23.80;99.90;;;;;;4975689;28;20053;-70
2022/08/08 10:25:39;;;;;;;2.78;1.38;;;23.30;99.90;;;;;;4969834;28;20047;-69
2022/08/08 10:28:14;;;;;;;2.47;1.27;;;22.90;99.90;;;;;;4975203;28;20497;-69
2022/08/08 10:30:54;;;;;;;2.20;1.15;;;22.60;99.90;;;;;;5019269;28;20037;-68
2022/08/08 10:33:31;;;;;;;2.80;1.20;;;22.40;99.90;;;;;;4993636;28;20493;-68
2022/08/08 10:36:03;;;;;;;3.63;1.40;;;22.30;99.90;;;;;;4987198;28;20380;-68
2022/08/08 10:38:34;;;;;;;3.17;1.20;;;22.20;99.90;;;;;;5006881;28;20046;-69
2022/08/08 10:41:03;;;;;;;3.90;1.30;;;22.10;99.90;;;;;;5022406;28;20176;-68
2022/08/08 10:43:40;;;;;;;2.13;1.25;;;21.90;99.90;;;;;;5011615;28;20053;-68
2022/08/08 10:46:25;;;;;;;4.45;1.40;;;21.90;99.90;;;;;;4986443;28;20055;-67
2022/08/08 10:48:53;;;;;;;1.98;1.35;;;21.80;99.90;;;;;;4998967;28;20077;-69
2022/08/08 10:51:24;;;;;;;3.47;1.60;;;21.70;99.90;;;;;;4971178;28;20042;-67
2022/08/08 10:53:51;;;;;;;;;;;21.60;99.90;;;;;;4977932;28;20101;-67
2022/08/08 10:56:18;;;;;;;2.63;1.58;;;21.50;99.90;;;;;;4990510;28;19965;-68
2022/08/08 10:58:44;;;;;;;3.17;1.30;;;21.50;99.90;;;;;;4982859;28;20085;-67
2022/08/08 11:01:11;;;;;;;3.92;1.70;;;21.60;99.90;;;;;;4972325;28;20042;-68
2022/08/08 11:03:43;;;;;;;5.47;1.50;;;21.50;99.90;;;;;;5017686;28;20050;-68
2022/08/08 11:06:10;;;;;;;4.05;1.90;;;21.50;99.90;;;;;;5007017;28;20043;-68
2022/08/08 11:08:37;;;;;;;3.80;1.55;;;21.50;99.90;;;;;;4980786;28;20049;-68
2022/08/08 11:11:05;;;;;;;2.83;1.50;;;21.60;99.90;;;;;;5008502;28;20042;-68
2022/08/08 11:13:42;;;;;;;4.45;1.50;;;21.60;99.90;;;;;;4980673;28;20081;-68
2022/08/08 11:16:12;;;;;;;2.60;1.58;;;21.70;99.90;;;;;;4989343;28;20050;-70
2022/08/08 11:18:39;;;;;;;2.70;1.50;;;21.60;99.90;;;;;;4990618;28;20039;-67
2022/08/08 11:21:07;;;;;;;4.75;1.67;;;21.70;99.90;;;;;;4991132;28;20038;-68
2022/08/08 11:23:35;;;;;;;30.25;2.35;;;21.60;99.90;;;;;;5012206;28;20498;-67
2022/08/08 11:26:05;;;;;;;3.83;1.35;;;21.70;99.90;;;;;;4975262;28;20046;-67
2022/08/08 11:28:36;;;;;;;1.90;1.23;;;21.60;99.90;;;;;;4979744;28;20368;-69
2022/08/08 11:31:03;;;;;;;5.32;1.40;;;21.90;99.90;;;;;;5003381;28;20045;-69
2022/08/08 11:33:34;;;;;;;4.75;1.50;;;21.80;99.90;;;;;;4977435;28;20381;-68
2022/08/08 11:36:00;;;;;;;3.13;1.70;;;21.80;99.90;;;;;;5000406;28;20050;-68
2022/08/08 11:38:27;;;;;;;4.53;1.70;;;21.80;99.90;;;;;;5014594;28;20038;-68
2022/08/08 11:40:54;;;;;;;2.38;1.30;;;21.90;99.90;;;;;;4983733;28;20469;-69
2022/08/08 11:43:22;;;;;;;3.88;1.42;;;22.00;99.90;;;;;;5001862;28;20481;-68
2022/08/08 11:45:51;;;;;;;3.35;1.48;;;22.00;99.90;;;;;;5007093;28;20073;-71
2022/08/08 11:48:18;;;;;;;3.45;1.77;;;22.10;99.90;;;;;;4992669;28;20094;-68
2022/08/08 11:50:45;;;;;;;4.55;1.63;;;22.20;99.90;;;;;;4986903;28;20406;-70
2022/08/08 11:53:12;;;;;;;1.70;1.52;;;22.30;99.90;;;;;;5000431;28;20061;-68
2022/08/08 11:55:49;;;;;;;2.33;1.45;;;22.30;99.90;;;;;;4997364;28;20037;-69
2022/08/08 11:58:16;;;;;;;3.50;1.48;;;22.40;99.90;;;;;;4991090;28;20054;-70
2022/08/08 12:00:47;;;;;;;4.20;1.73;;;22.50;99.90;;;;;;4983364;28;20042;-68
2022/08/08 12:03:19;;;;;;;3.92;1.80;;;22.50;99.90;;;;;;4978131;28;20477;-69
2022/08/08 12:05:46;;;;;;;4.60;2.00;;;22.50;99.90;;;;;;4993958;28;20062;-69
2022/08/08 12:08:15;;;;;;;4.20;1.80;;;22.50;99.90;;;;;;4977193;28;20392;-68
2022/08/08 12:10:46;;;;;;;3.13;1.88;;;22.60;99.90;;;;;;4982570;28;20046;-68
2022/08/08 12:13:21;;;;;;;2.58;1.92;;;22.70;99.90;;;;;;4994222;28;20057;-68
2022/08/08 12:15:48;;;;;;;2.92;1.70;;;22.90;99.90;;;;;;4968666;28;20054;-69
2022/08/08 12:18:25;;;;;;;2.85;1.80;;;22.90;99.90;;;;;;4985447;28;20050;-75
2022/08/08 12:20:53;;;;;;;1.85;1.60;;;22.90;99.90;;;;;;4989946;28;20046;-72
2022/08/08 12:23:35;;;;;;;4.00;1.60;;;23.00;99.90;;;;;;4979131;28;20030;-72
2022/08/08 12:26:09;;;;;;;3.63;1.38;;;22.90;99.90;;;;;;5007257;28;20125;-72
2022/08/08 12:28:35;;;;;;;3.45;1.60;;;22.90;99.90;;;;;;5009090;28;20437;-72
2022/08/08 12:31:05;;;;;;;3.30;1.70;;;22.90;99.90;;;;;;5010280;28;20543;-72
2022/08/08 12:33:32;;;;;;;2.45;1.48;;;22.90;99.90;;;;;;4995832;28;20495;-73
2022/08/08 12:36:08;;;;;;;3.17;1.60;;;22.80;99.90;;;;;;5020717;28;20109;-73
2022/08/08 12:38:47;;;;;;;3.45;1.80;;;22.80;99.90;;;;;;4993898;28;20046;-73
2022/08/08 12:41:13;;;;;;;4.30;1.65;;;22.80;99.90;;;;;;4998645;28;20046;-72
2022/08/08 12:43:39;;;;;;;5.80;1.70;;;22.70;99.90;;;;;;5005054;28;20038;-73
2022/08/08 12:46:14;;;;;;;3.75;1.60;;;22.70;99.90;;;;;;4963828;28;20138;-72
2022/08/08 12:48:41;;;;;;;3.40;1.60;;;22.70;99.90;;;;;;4979289;28;20070;-72
2022/08/08 12:51:18;;;;;;;4.53;1.50;;;22.70;99.90;;;;;;5010238;28;20046;-73
2022/08/08 12:53:59;;;;;;;4.47;1.30;;;22.70;99.90;;;;;;5009858;28;20129;-72
2022/08/08 12:56:33;;;;;;;3.30;1.88;;;22.70;99.90;;;;;;5014998;28;20097;-72
2022/08/08 12:59:00;;;;;;;3.65;1.50;;;22.60;99.90;;;;;;4974111;28;20042;-75
2022/08/08 13:01:36;;;;;;;4.35;1.40;;;22.50;99.90;;;;;;5001061;28;20086;-73
2022/08/08 13:04:13;;;;;;;3.88;1.80;;;22.50;99.90;;;;;;4985175;28;20084;-72
2022/08/08 13:06:50;;;;;;;4.60;1.70;;;22.40;99.90;;;;;;4976627;28;20077;-72
2022/08/08 13:09:16;;;;;;;2.55;1.58;;;22.50;99.90;;;;;;4976403;28;20037;-72
2022/08/08 13:11:52;;;;;;;2.75;1.55;;;22.50;99.90;;;;;;5000319;28;20050;-72
2022/08/08 13:14:19;;;;;;;2.38;1.63;;;22.60;99.90;;;;;;4994324;28;20427;-72
2022/08/08 13:16:45;;;;;;;2.42;2.10;;;22.70;99.90;;;;;;4979774;28;20086;-72
2022/08/08 13:19:11;;;;;;;4.63;1.83;;;22.70;99.90;;;;;;4989031;28;20384;-72
2022/08/08 13:21:45;;;;;;;3.63;1.60;;;22.80;99.90;;;;;;4995129;28;20105;-72